sensor_id;sensor_type;location;lat;lon;timestamp;P1;durP1;ratioP1;P2;durP2;ratioP2
72904;SDS011;61048;52.162;4.516;2022-10-16T00:01:52;2.15;;;0.30;;
72904;SDS011;61048;52.162;4.516;2022-10-16T00:04:19;4.20;;;0.32;;
72904;SDS011;61048;52.162;4.516;2022-10-16T00:06:46;3.33;;;0.38;;
72904;SDS011;61048;52.162;4.516;2022-10-16T00:09:12;4.38;;;0.52;;
72904;SDS011;61048;52.162;4.516;2022-10-16T00:11:40;3.53;;;0.40;;
72904;SDS011;61048;52.162;4.516;2022-10-16T00:14:10;3.28;;;0.43;;
72904;SDS011;61048;52.162;4.516;2022-10-16T00:16:38;4.25;;;0.47;;
72904;SDS011;61048;52.162;4.516;2022-10-16T00:19:05;4.63;;;0.57;;
72904;SDS011;61048;52.162;4.516;2022-10-16T00:21:33;1.80;;;0.52;;
72904;SDS011;61048;52.162;4.516;2022-10-16T00:24:00;1.92;;;0.43;;
72904;SDS011;61048;52.162;4.516;2022-10-16T00:26:30;5.70;;;0.32;;
72904;SDS011;61048;52.162;4.516;2022-10-16T00:28:58;1.35;;;0.20;;
72904;SDS011;61048;52.162;4.516;2022-10-16T00:31:26;1.52;;;0.30;;
72904;SDS011;61048;52.162;4.516;2022-10-16T00:33:54;3.17;;;0.38;;
72904;SDS011;61048;52.162;4.516;2022-10-16T00:36:22;2.28;;;0.38;;
72904;SDS011;61048;52.162;4.516;2022-10-16T00:38:50;2.92;;;0.28;;
72904;SDS011;61048;52.162;4.516;2022-10-16T00:41:19;4.53;;;0.55;;
72904;SDS011;61048;52.162;4.516;2022-10-16T00:43:48;1.88;;;0.40;;
72904;SDS011;61048;52.162;4.516;2022-10-16T00:46:17;4.13;;;0.30;;
72904;SDS011;61048;52.162;4.516;2022-10-16T00:48:48;2.88;;;0.50;;
72904;SDS011;61048;52.162;4.516;2022-10-16T00:51:19;4.40;;;0.57;;
72904;SDS011;61048;52.162;4.516;2022-10-16T00:53:51;1.88;;;0.50;;
72904;SDS011;61048;52.162;4.516;2022-10-16T00:56:18;3.50;;;0.30;;
72904;SDS011;61048;52.162;4.516;2022-10-16T00:58:45;2.78;;;0.43;;
72904;SDS011;61048;52.162;4.516;2022-10-16T01:01:13;1.25;;;0.30;;
72904;SDS011;61048;52.162;4.516;2022-10-16T01:03:39;1.58;;;0.35;;
72904;SDS011;61048;52.162;4.516;2022-10-16T01:06:15;3.10;;;0.20;;
72904;SDS011;61048;52.162;4.516;2022-10-16T01:08:51;1.30;;;0.40;;
72904;SDS011;61048;52.162;4.516;2022-10-16T01:11:25;3.33;;;0.40;;
72904;SDS011;61048;52.162;4.516;2022-10-16T01:14:02;2.28;;;0.30;;
72904;SDS011;61048;52.162;4.516;2022-10-16T01:16:38;3.20;;;0.50;;
72904;SDS011;61048;52.162;4.516;2022-10-16T01:19:12;2.58;;;0.25;;
72904;SDS011;61048;52.162;4.516;2022-10-16T01:21:45;1.25;;;0.28;;
72904;SDS011;61048;52.162;4.516;2022-10-16T01:24:17;1.38;;;0.25;;
72904;SDS011;61048;52.162;4.516;2022-10-16T01:29:39;1.38;;;0.32;;
72904;SDS011;61048;52.162;4.516;2022-10-16T01:32:13;2.47;;;0.70;;
72904;SDS011;61048;52.162;4.516;2022-10-16T01:34:46;3.13;;;0.50;;
72904;SDS011;61048;52.162;4.516;2022-10-16T01:37:16;4.10;;;0.43;;
72904;SDS011;61048;52.162;4.516;2022-10-16T01:39:48;2.40;;;0.40;;
72904;SDS011;61048;52.162;4.516;2022-10-16T01:42:21;1.35;;;0.20;;
72904;SDS011;61048;52.162;4.516;2022-10-16T01:44:53;2.08;;;1.00;;
72904;SDS011;61048;52.162;4.516;2022-10-16T01:47:22;0.93;;;0.40;;
72904;SDS011;61048;52.162;4.516;2022-10-16T01:49:51;1.63;;;0.35;;
72904;SDS011;61048;52.162;4.516;2022-10-16T01:52:19;1.08;;;0.13;;
72904;SDS011;61048;52.162;4.516;2022-10-16T01:54:50;2.55;;;0.40;;
72904;SDS011;61048;52.162;4.516;2022-10-16T01:57:22;1.60;;;0.22;;
72904;SDS011;61048;52.162;4.516;2022-10-16T01:59:52;3.53;;;0.52;;
72904;SDS011;61048;52.162;4.516;2022-10-16T02:02:22;1.77;;;0.40;;
72904;SDS011;61048;52.162;4.516;2022-10-16T02:04:53;0.80;;;0.50;;
72904;SDS011;61048;52.162;4.516;2022-10-16T02:07:24;2.08;;;0.30;;
72904;SDS011;61048;52.162;4.516;2022-10-16T02:09:51;1.58;;;0.30;;
72904;SDS011;61048;52.162;4.516;2022-10-16T02:12:19;1.75;;;0.40;;
72904;SDS011;61048;52.162;4.516;2022-10-16T02:14:52;2.50;;;0.30;;
72904;SDS011;61048;52.162;4.516;2022-10-16T02:17:19;1.58;;;0.40;;
72904;SDS011;61048;52.162;4.516;2022-10-16T02:19:46;1.73;;;0.57;;
72904;SDS011;61048;52.162;4.516;2022-10-16T02:22:16;4.15;;;0.95;;
72904;SDS011;61048;52.162;4.516;2022-10-16T02:24:47;1.83;;;0.28;;
72904;SDS011;61048;52.162;4.516;2022-10-16T02:27:19;2.75;;;0.40;;
72904;SDS011;61048;52.162;4.516;2022-10-16T02:29:54;2.08;;;0.38;;
72904;SDS011;61048;52.162;4.516;2022-10-16T02:32:27;2.08;;;0.43;;
72904;SDS011;61048;52.162;4.516;2022-10-16T02:34:57;1.00;;;0.20;;
72904;SDS011;61048;52.162;4.516;2022-10-16T02:37:25;1.70;;;0.50;;
72904;SDS011;61048;52.162;4.516;2022-10-16T02:39:53;3.08;;;0.50;;
72904;SDS011;61048;52.162;4.516;2022-10-16T02:42:26;2.80;;;0.40;;
72904;SDS011;61048;52.162;4.516;2022-10-16T02:44:55;2.13;;;0.30;;
72904;SDS011;61048;52.162;4.516;2022-10-16T02:47:22;0.98;;;0.20;;
72904;SDS011;61048;52.162;4.516;2022-10-16T02:49:49;1.70;;;0.50;;
72904;SDS011;61048;52.162;4.516;2022-10-16T02:52:16;1.08;;;0.28;;
72904;SDS011;61048;52.162;4.516;2022-10-16T02:54:43;1.45;;;0.30;;
72904;SDS011;61048;52.162;4.516;2022-10-16T02:57:09;2.03;;;0.35;;
72904;SDS011;61048;52.162;4.516;2022-10-16T02:59:38;1.42;;;0.32;;
72904;SDS011;61048;52.162;4.516;2022-10-16T03:02:05;1.75;;;0.22;;
72904;SDS011;61048;52.162;4.516;2022-10-16T03:04:31;2.60;;;0.40;;
72904;SDS011;61048;52.162;4.516;2022-10-16T03:06:58;3.78;;;0.40;;
72904;SDS011;61048;52.162;4.516;2022-10-16T03:09:25;1.40;;;0.30;;
72904;SDS011;61048;52.162;4.516;2022-10-16T03:11:52;2.88;;;0.45;;
72904;SDS011;61048;52.162;4.516;2022-10-16T03:14:19;0.80;;;0.30;;
72904;SDS011;61048;52.162;4.516;2022-10-16T03:16:47;0.80;;;0.20;;
72904;SDS011;61048;52.162;4.516;2022-10-16T03:19:16;1.35;;;0.32;;
72904;SDS011;61048;52.162;4.516;2022-10-16T03:21:43;1.98;;;0.40;;
72904;SDS011;61048;52.162;4.516;2022-10-16T03:24:10;1.23;;;0.60;;
72904;SDS011;61048;52.162;4.516;2022-10-16T03:26:37;2.30;;;0.22;;
72904;SDS011;61048;52.162;4.516;2022-10-16T03:29:04;1.08;;;0.45;;
72904;SDS011;61048;52.162;4.516;2022-10-16T03:31:31;1.08;;;0.22;;
72904;SDS011;61048;52.162;4.516;2022-10-16T03:34:00;1.88;;;0.32;;
72904;SDS011;61048;52.162;4.516;2022-10-16T03:36:26;1.85;;;0.50;;
72904;SDS011;61048;52.162;4.516;2022-10-16T03:38:53;0.43;;;0.13;;
72904;SDS011;61048;52.162;4.516;2022-10-16T03:41:20;1.23;;;0.28;;
72904;SDS011;61048;52.162;4.516;2022-10-16T03:43:47;1.38;;;0.20;;
72904;SDS011;61048;52.162;4.516;2022-10-16T03:46:13;1.38;;;0.40;;
72904;SDS011;61048;52.162;4.516;2022-10-16T03:48:40;1.58;;;0.35;;
72904;SDS011;61048;52.162;4.516;2022-10-16T03:51:08;1.63;;;0.50;;
72904;SDS011;61048;52.162;4.516;2022-10-16T03:53:35;2.53;;;0.40;;
72904;SDS011;61048;52.162;4.516;2022-10-16T03:56:02;1.60;;;0.43;;
72904;SDS011;61048;52.162;4.516;2022-10-16T03:58:29;1.55;;;0.32;;
72904;SDS011;61048;52.162;4.516;2022-10-16T04:00:56;1.45;;;0.22;;
72904;SDS011;61048;52.162;4.516;2022-10-16T04:03:23;1.70;;;0.38;;
72904;SDS011;61048;52.162;4.516;2022-10-16T04:05:50;2.88;;;0.40;;
72904;SDS011;61048;52.162;4.516;2022-10-16T04:08:18;0.82;;;0.22;;
72904;SDS011;61048;52.162;4.516;2022-10-16T04:10:45;1.83;;;0.20;;
72904;SDS011;61048;52.162;4.516;2022-10-16T04:13:12;1.90;;;0.40;;
72904;SDS011;61048;52.162;4.516;2022-10-16T04:15:39;1.80;;;0.30;;
72904;SDS011;61048;52.162;4.516;2022-10-16T04:18:06;1.80;;;0.32;;
72904;SDS011;61048;52.162;4.516;2022-10-16T04:20:33;1.10;;;0.22;;
72904;SDS011;61048;52.162;4.516;2022-10-16T04:23:00;1.50;;;0.20;;
72904;SDS011;61048;52.162;4.516;2022-10-16T04:25:28;1.48;;;0.30;;
72904;SDS011;61048;52.162;4.516;2022-10-16T04:27:56;1.60;;;0.32;;
72904;SDS011;61048;52.162;4.516;2022-10-16T04:30:23;2.75;;;0.30;;
72904;SDS011;61048;52.162;4.516;2022-10-16T04:32:50;1.80;;;0.30;;
72904;SDS011;61048;52.162;4.516;2022-10-16T04:35:17;1.30;;;0.32;;
72904;SDS011;61048;52.162;4.516;2022-10-16T04:37:45;2.15;;;0.30;;
72904;SDS011;61048;52.162;4.516;2022-10-16T04:40:12;1.60;;;0.52;;
72904;SDS011;61048;52.162;4.516;2022-10-16T04:42:41;0.90;;;0.30;;
72904;SDS011;61048;52.162;4.516;2022-10-16T04:45:08;1.35;;;0.20;;
72904;SDS011;61048;52.162;4.516;2022-10-16T04:47:35;6.70;;;0.40;;
72904;SDS011;61048;52.162;4.516;2022-10-16T04:50:02;5.47;;;0.40;;
72904;SDS011;61048;52.162;4.516;2022-10-16T04:52:29;1.73;;;0.77;;
72904;SDS011;61048;52.162;4.516;2022-10-16T04:54:56;1.08;;;0.40;;
72904;SDS011;61048;52.162;4.516;2022-10-16T04:57:26;1.20;;;0.25;;
72904;SDS011;61048;52.162;4.516;2022-10-16T04:59:54;1.25;;;0.43;;
72904;SDS011;61048;52.162;4.516;2022-10-16T05:02:21;1.83;;;0.20;;
72904;SDS011;61048;52.162;4.516;2022-10-16T05:04:48;1.63;;;0.20;;
72904;SDS011;61048;52.162;4.516;2022-10-16T05:07:15;1.98;;;0.22;;
72904;SDS011;61048;52.162;4.516;2022-10-16T05:09:41;1.67;;;0.30;;
72904;SDS011;61048;52.162;4.516;2022-10-16T05:12:08;1.00;;;0.30;;
72904;SDS011;61048;52.162;4.516;2022-10-16T05:14:35;1.10;;;0.22;;
72904;SDS011;61048;52.162;4.516;2022-10-16T05:17:03;1.30;;;0.30;;
72904;SDS011;61048;52.162;4.516;2022-10-16T05:19:30;2.85;;;0.30;;
72904;SDS011;61048;52.162;4.516;2022-10-16T05:21:57;8.18;;;1.77;;
72904;SDS011;61048;52.162;4.516;2022-10-16T05:24:24;4.13;;;0.70;;
72904;SDS011;61048;52.162;4.516;2022-10-16T05:26:51;1.90;;;0.38;;
72904;SDS011;61048;52.162;4.516;2022-10-16T05:29:18;2.97;;;0.43;;
72904;SDS011;61048;52.162;4.516;2022-10-16T05:31:45;2.60;;;0.30;;
72904;SDS011;61048;52.162;4.516;2022-10-16T05:34:13;2.75;;;0.40;;
72904;SDS011;61048;52.162;4.516;2022-10-16T05:36:40;1.40;;;0.35;;
72904;SDS011;61048;52.162;4.516;2022-10-16T05:39:07;2.35;;;0.52;;
72904;SDS011;61048;52.162;4.516;2022-10-16T05:41:33;3.03;;;0.32;;
72904;SDS011;61048;52.162;4.516;2022-10-16T05:44:03;3.95;;;0.45;;
72904;SDS011;61048;52.162;4.516;2022-10-16T05:46:30;2.17;;;0.45;;
72904;SDS011;61048;52.162;4.516;2022-10-16T05:48:57;2.83;;;0.50;;
72904;SDS011;61048;52.162;4.516;2022-10-16T05:51:25;2.28;;;0.50;;
72904;SDS011;61048;52.162;4.516;2022-10-16T05:53:52;1.40;;;0.32;;
72904;SDS011;61048;52.162;4.516;2022-10-16T05:56:19;2.83;;;0.30;;
72904;SDS011;61048;52.162;4.516;2022-10-16T05:58:46;1.58;;;0.40;;
72904;SDS011;61048;52.162;4.516;2022-10-16T06:01:13;3.53;;;0.38;;
72904;SDS011;61048;52.162;4.516;2022-10-16T06:03:41;4.72;;;0.60;;
72904;SDS011;61048;52.162;4.516;2022-10-16T06:06:09;1.95;;;0.32;;
72904;SDS011;61048;52.162;4.516;2022-10-16T06:08:38;2.50;;;0.40;;
72904;SDS011;61048;52.162;4.516;2022-10-16T06:11:06;1.33;;;0.30;;
72904;SDS011;61048;52.162;4.516;2022-10-16T06:13:34;2.33;;;0.40;;
72904;SDS011;61048;52.162;4.516;2022-10-16T06:16:02;2.92;;;0.55;;
72904;SDS011;61048;52.162;4.516;2022-10-16T06:18:30;2.60;;;1.08;;
72904;SDS011;61048;52.162;4.516;2022-10-16T06:20:57;1.27;;;0.40;;
72904;SDS011;61048;52.162;4.516;2022-10-16T06:23:24;3.03;;;0.45;;
72904;SDS011;61048;52.162;4.516;2022-10-16T06:25:52;1.38;;;0.22;;
72904;SDS011;61048;52.162;4.516;2022-10-16T06:28:19;0.77;;;0.40;;
72904;SDS011;61048;52.162;4.516;2022-10-16T06:30:46;2.92;;;0.55;;
72904;SDS011;61048;52.162;4.516;2022-10-16T06:33:13;2.28;;;0.35;;
72904;SDS011;61048;52.162;4.516;2022-10-16T06:35:40;2.08;;;0.40;;
72904;SDS011;61048;52.162;4.516;2022-10-16T06:38:06;2.08;;;1.27;;
72904;SDS011;61048;52.162;4.516;2022-10-16T06:40:33;1.80;;;0.85;;
72904;SDS011;61048;52.162;4.516;2022-10-16T06:43:01;2.65;;;0.40;;
72904;SDS011;61048;52.162;4.516;2022-10-16T06:45:28;1.83;;;0.35;;
72904;SDS011;61048;52.162;4.516;2022-10-16T06:47:55;0.95;;;0.22;;
72904;SDS011;61048;52.162;4.516;2022-10-16T06:50:22;2.47;;;0.43;;
72904;SDS011;61048;52.162;4.516;2022-10-16T06:52:49;1.88;;;0.40;;
72904;SDS011;61048;52.162;4.516;2022-10-16T06:55:16;1.92;;;0.25;;
72904;SDS011;61048;52.162;4.516;2022-10-16T06:57:43;2.28;;;0.32;;
72904;SDS011;61048;52.162;4.516;2022-10-16T07:00:11;2.80;;;0.22;;
72904;SDS011;61048;52.162;4.516;2022-10-16T07:02:38;1.30;;;0.52;;
72904;SDS011;61048;52.162;4.516;2022-10-16T07:05:05;2.78;;;0.60;;
72904;SDS011;61048;52.162;4.516;2022-10-16T07:07:33;2.70;;;1.02;;
72904;SDS011;61048;52.162;4.516;2022-10-16T07:10:00;1.75;;;0.32;;
72904;SDS011;61048;52.162;4.516;2022-10-16T07:12:27;1.80;;;0.45;;
72904;SDS011;61048;52.162;4.516;2022-10-16T07:14:54;2.03;;;0.40;;
72904;SDS011;61048;52.162;4.516;2022-10-16T07:17:22;1.55;;;0.22;;
72904;SDS011;61048;52.162;4.516;2022-10-16T07:19:49;1.95;;;0.30;;
72904;SDS011;61048;52.162;4.516;2022-10-16T07:22:18;2.53;;;0.50;;
72904;SDS011;61048;52.162;4.516;2022-10-16T07:24:45;3.25;;;0.50;;
72904;SDS011;61048;52.162;4.516;2022-10-16T07:27:11;1.45;;;0.40;;
72904;SDS011;61048;52.162;4.516;2022-10-16T07:29:38;2.33;;;0.30;;
72904;SDS011;61048;52.162;4.516;2022-10-16T07:32:05;2.47;;;0.40;;
72904;SDS011;61048;52.162;4.516;2022-10-16T07:34:33;1.90;;;0.38;;
72904;SDS011;61048;52.162;4.516;2022-10-16T07:37:00;2.60;;;0.45;;
72904;SDS011;61048;52.162;4.516;2022-10-16T07:39:27;1.33;;;0.50;;
72904;SDS011;61048;52.162;4.516;2022-10-16T07:41:54;2.63;;;0.75;;
72904;SDS011;61048;52.162;4.516;2022-10-16T07:44:21;14.93;;;1.52;;
72904;SDS011;61048;52.162;4.516;2022-10-16T07:46:48;8.73;;;1.27;;
72904;SDS011;61048;52.162;4.516;2022-10-16T07:49:14;10.77;;;2.22;;
72904;SDS011;61048;52.162;4.516;2022-10-16T07:51:43;13.30;;;1.77;;
72904;SDS011;61048;52.162;4.516;2022-10-16T07:54:09;12.85;;;1.50;;
72904;SDS011;61048;52.162;4.516;2022-10-16T07:56:37;17.42;;;3.20;;
72904;SDS011;61048;52.162;4.516;2022-10-16T07:59:03;13.10;;;1.98;;
72904;SDS011;61048;52.162;4.516;2022-10-16T08:01:30;14.98;;;1.55;;
72904;SDS011;61048;52.162;4.516;2022-10-16T08:03:57;14.48;;;1.48;;
72904;SDS011;61048;52.162;4.516;2022-10-16T08:06:24;13.90;;;2.05;;
72904;SDS011;61048;52.162;4.516;2022-10-16T08:08:53;9.20;;;1.45;;
72904;SDS011;61048;52.162;4.516;2022-10-16T08:11:20;11.30;;;1.38;;
72904;SDS011;61048;52.162;4.516;2022-10-16T08:13:47;10.60;;;1.27;;
72904;SDS011;61048;52.162;4.516;2022-10-16T08:16:14;8.75;;;1.33;;
72904;SDS011;61048;52.162;4.516;2022-10-16T08:18:42;8.40;;;1.15;;
72904;SDS011;61048;52.162;4.516;2022-10-16T08:21:12;6.57;;;1.33;;
72904;SDS011;61048;52.162;4.516;2022-10-16T08:23:40;6.47;;;0.60;;
72904;SDS011;61048;52.162;4.516;2022-10-16T08:26:08;1.83;;;0.35;;
72904;SDS011;61048;52.162;4.516;2022-10-16T08:28:35;7.30;;;0.82;;
72904;SDS011;61048;52.162;4.516;2022-10-16T08:31:06;4.68;;;0.75;;
72904;SDS011;61048;52.162;4.516;2022-10-16T08:33:35;4.43;;;0.50;;
72904;SDS011;61048;52.162;4.516;2022-10-16T08:36:02;4.28;;;0.52;;
72904;SDS011;61048;52.162;4.516;2022-10-16T08:38:30;3.92;;;0.75;;
72904;SDS011;61048;52.162;4.516;2022-10-16T08:41:00;2.90;;;0.60;;
72904;SDS011;61048;52.162;4.516;2022-10-16T08:43:50;4.22;;;1.20;;
72904;SDS011;61048;52.162;4.516;2022-10-16T08:46:33;4.35;;;0.60;;
72904;SDS011;61048;52.162;4.516;2022-10-16T08:49:08;1.95;;;0.30;;
72904;SDS011;61048;52.162;4.516;2022-10-16T08:51:39;6.20;;;0.98;;
72904;SDS011;61048;52.162;4.516;2022-10-16T08:54:09;3.90;;;0.55;;
72904;SDS011;61048;52.162;4.516;2022-10-16T08:56:46;3.90;;;0.38;;
72904;SDS011;61048;52.162;4.516;2022-10-16T08:59:13;3.92;;;1.10;;
72904;SDS011;61048;52.162;4.516;2022-10-16T09:01:44;5.88;;;0.70;;
72904;SDS011;61048;52.162;4.516;2022-10-16T09:04:20;6.20;;;0.60;;
72904;SDS011;61048;52.162;4.516;2022-10-16T09:07:12;3.65;;;0.50;;
72904;SDS011;61048;52.162;4.516;2022-10-16T09:09:52;3.15;;;0.80;;
72904;SDS011;61048;52.162;4.516;2022-10-16T09:12:33;4.47;;;0.60;;
72904;SDS011;61048;52.162;4.516;2022-10-16T09:15:12;3.97;;;0.60;;
72904;SDS011;61048;52.162;4.516;2022-10-16T09:17:49;4.47;;;0.35;;
72904;SDS011;61048;52.162;4.516;2022-10-16T09:20:26;3.40;;;0.55;;
72904;SDS011;61048;52.162;4.516;2022-10-16T09:23:14;5.00;;;0.70;;
72904;SDS011;61048;52.162;4.516;2022-10-16T09:25:44;2.30;;;0.50;;
72904;SDS011;61048;52.162;4.516;2022-10-16T09:28:15;1.67;;;0.38;;
72904;SDS011;61048;52.162;4.516;2022-10-16T09:30:42;4.05;;;0.60;;
72904;SDS011;61048;52.162;4.516;2022-10-16T09:33:10;4.68;;;0.73;;
72904;SDS011;61048;52.162;4.516;2022-10-16T09:35:39;2.38;;;0.30;;
72904;SDS011;61048;52.162;4.516;2022-10-16T09:38:09;5.93;;;0.80;;
72904;SDS011;61048;52.162;4.516;2022-10-16T09:43:19;5.68;;;0.65;;
72904;SDS011;61048;52.162;4.516;2022-10-16T09:45:56;7.38;;;0.65;;
72904;SDS011;61048;52.162;4.516;2022-10-16T09:48:25;5.30;;;0.52;;
72904;SDS011;61048;52.162;4.516;2022-10-16T09:50:56;8.60;;;1.08;;
72904;SDS011;61048;52.162;4.516;2022-10-16T09:53:25;7.75;;;0.68;;
72904;SDS011;61048;52.162;4.516;2022-10-16T09:56:04;6.75;;;1.00;;
72904;SDS011;61048;52.162;4.516;2022-10-16T09:58:33;3.88;;;0.60;;
72904;SDS011;61048;52.162;4.516;2022-10-16T10:01:00;36.78;;;6.50;;
72904;SDS011;61048;52.162;4.516;2022-10-16T10:03:36;11.43;;;2.08;;
72904;SDS011;61048;52.162;4.516;2022-10-16T10:06:06;27.92;;;5.38;;
72904;SDS011;61048;52.162;4.516;2022-10-16T10:08:52;26.13;;;3.53;;
72904;SDS011;61048;52.162;4.516;2022-10-16T10:14:08;25.40;;;4.57;;
72904;SDS011;61048;52.162;4.516;2022-10-16T10:16:44;25.90;;;3.92;;
72904;SDS011;61048;52.162;4.516;2022-10-16T10:19:13;27.77;;;3.95;;
72904;SDS011;61048;52.162;4.516;2022-10-16T10:21:41;25.55;;;4.35;;
72904;SDS011;61048;52.162;4.516;2022-10-16T10:24:10;24.30;;;4.10;;
72904;SDS011;61048;52.162;4.516;2022-10-16T10:26:37;23.20;;;4.18;;
72904;SDS011;61048;52.162;4.516;2022-10-16T10:29:10;20.52;;;3.53;;
72904;SDS011;61048;52.162;4.516;2022-10-16T10:31:43;17.17;;;3.40;;
72904;SDS011;61048;52.162;4.516;2022-10-16T10:34:22;14.20;;;2.75;;
72904;SDS011;61048;52.162;4.516;2022-10-16T10:37:14;14.32;;;2.30;;
72904;SDS011;61048;52.162;4.516;2022-10-16T10:39:53;15.07;;;2.40;;
72904;SDS011;61048;52.162;4.516;2022-10-16T10:42:27;16.58;;;2.58;;
72904;SDS011;61048;52.162;4.516;2022-10-16T10:45:11;13.68;;;2.15;;
72904;SDS011;61048;52.162;4.516;2022-10-16T10:47:46;15.75;;;2.15;;
72904;SDS011;61048;52.162;4.516;2022-10-16T10:50:21;11.70;;;2.42;;
72904;SDS011;61048;52.162;4.516;2022-10-16T10:52:59;10.40;;;1.48;;
72904;SDS011;61048;52.162;4.516;2022-10-16T10:55:36;11.38;;;1.55;;
72904;SDS011;61048;52.162;4.516;2022-10-16T11:00:57;9.48;;;1.42;;
72904;SDS011;61048;52.162;4.516;2022-10-16T11:03:33;6.30;;;0.88;;
72904;SDS011;61048;52.162;4.516;2022-10-16T11:06:13;8.13;;;1.13;;
72904;SDS011;61048;52.162;4.516;2022-10-16T11:08:43;10.30;;;1.38;;
72904;SDS011;61048;52.162;4.516;2022-10-16T11:11:15;12.30;;;1.38;;
72904;SDS011;61048;52.162;4.516;2022-10-16T11:13:48;7.18;;;1.02;;
72904;SDS011;61048;52.162;4.516;2022-10-16T11:16:23;9.73;;;0.90;;
72904;SDS011;61048;52.162;4.516;2022-10-16T11:18:55;6.57;;;1.10;;
72904;SDS011;61048;52.162;4.516;2022-10-16T11:21:26;5.93;;;0.52;;
72904;SDS011;61048;52.162;4.516;2022-10-16T11:24:01;7.45;;;0.80;;
72904;SDS011;61048;52.162;4.516;2022-10-16T11:26:39;10.60;;;1.02;;
72904;SDS011;61048;52.162;4.516;2022-10-16T11:29:10;9.52;;;1.88;;
72904;SDS011;61048;52.162;4.516;2022-10-16T11:31:45;5.75;;;1.10;;
72904;SDS011;61048;52.162;4.516;2022-10-16T11:34:17;4.20;;;0.93;;
72904;SDS011;61048;52.162;4.516;2022-10-16T11:36:53;5.07;;;1.42;;
72904;SDS011;61048;52.162;4.516;2022-10-16T11:39:23;7.38;;;0.90;;
72904;SDS011;61048;52.162;4.516;2022-10-16T11:41:53;5.80;;;0.52;;
72904;SDS011;61048;52.162;4.516;2022-10-16T11:44:33;5.05;;;0.77;;
72904;SDS011;61048;52.162;4.516;2022-10-16T11:47:11;8.05;;;0.98;;
72904;SDS011;61048;52.162;4.516;2022-10-16T11:49:50;5.63;;;0.65;;
72904;SDS011;61048;52.162;4.516;2022-10-16T11:52:19;7.57;;;0.77;;
72904;SDS011;61048;52.162;4.516;2022-10-16T11:54:50;6.88;;;0.63;;
72904;SDS011;61048;52.162;4.516;2022-10-16T11:57:22;6.65;;;0.85;;
72904;SDS011;61048;52.162;4.516;2022-10-16T11:59:51;7.70;;;0.52;;
72904;SDS011;61048;52.162;4.516;2022-10-16T12:02:33;4.45;;;0.60;;
72904;SDS011;61048;52.162;4.516;2022-10-16T12:05:15;6.65;;;1.02;;
72904;SDS011;61048;52.162;4.516;2022-10-16T12:07:50;6.40;;;0.82;;
72904;SDS011;61048;52.162;4.516;2022-10-16T12:10:24;7.38;;;0.70;;
72904;SDS011;61048;52.162;4.516;2022-10-16T12:12:52;6.55;;;0.77;;
72904;SDS011;61048;52.162;4.516;2022-10-16T12:15:22;6.53;;;0.50;;
72904;SDS011;61048;52.162;4.516;2022-10-16T12:17:52;4.80;;;0.60;;
72904;SDS011;61048;52.162;4.516;2022-10-16T12:20:21;4.07;;;0.68;;
72904;SDS011;61048;52.162;4.516;2022-10-16T12:22:52;6.22;;;0.90;;
72904;SDS011;61048;52.162;4.516;2022-10-16T12:25:21;5.28;;;0.80;;
72904;SDS011;61048;52.162;4.516;2022-10-16T12:27:54;4.80;;;0.65;;
72904;SDS011;61048;52.162;4.516;2022-10-16T12:30:22;4.43;;;0.50;;
72904;SDS011;61048;52.162;4.516;2022-10-16T12:32:55;5.38;;;0.60;;
72904;SDS011;61048;52.162;4.516;2022-10-16T12:35:25;6.60;;;0.73;;
72904;SDS011;61048;52.162;4.516;2022-10-16T12:37:54;9.27;;;0.52;;
72904;SDS011;61048;52.162;4.516;2022-10-16T12:40:33;6.25;;;0.60;;
72904;SDS011;61048;52.162;4.516;2022-10-16T12:43:10;5.78;;;0.73;;
72904;SDS011;61048;52.162;4.516;2022-10-16T12:45:48;7.82;;;0.82;;
72904;SDS011;61048;52.162;4.516;2022-10-16T12:48:27;6.10;;;0.63;;
72904;SDS011;61048;52.162;4.516;2022-10-16T12:50:55;4.57;;;0.70;;
72904;SDS011;61048;52.162;4.516;2022-10-16T12:53:23;5.57;;;0.60;;
72904;SDS011;61048;52.162;4.516;2022-10-16T12:55:57;5.68;;;0.75;;
72904;SDS011;61048;52.162;4.516;2022-10-16T12:58:48;9.40;;;0.90;;
72904;SDS011;61048;52.162;4.516;2022-10-16T13:01:29;7.75;;;0.93;;
72904;SDS011;61048;52.162;4.516;2022-10-16T13:04:04;6.35;;;0.65;;
72904;SDS011;61048;52.162;4.516;2022-10-16T13:06:45;5.63;;;0.95;;
72904;SDS011;61048;52.162;4.516;2022-10-16T13:09:31;5.43;;;0.68;;
72904;SDS011;61048;52.162;4.516;2022-10-16T13:15:14;6.82;;;0.40;;
72904;SDS011;61048;52.162;4.516;2022-10-16T13:17:59;6.70;;;0.68;;
72904;SDS011;61048;52.162;4.516;2022-10-16T13:20:35;5.90;;;0.50;;
72904;SDS011;61048;52.162;4.516;2022-10-16T13:23:11;4.65;;;0.40;;
72904;SDS011;61048;52.162;4.516;2022-10-16T13:25:44;4.38;;;0.60;;
72904;SDS011;61048;52.162;4.516;2022-10-16T13:28:22;6.00;;;0.63;;
72904;SDS011;61048;52.162;4.516;2022-10-16T13:30:54;6.43;;;0.43;;
72904;SDS011;61048;52.162;4.516;2022-10-16T13:33:25;7.38;;;0.65;;
72904;SDS011;61048;52.162;4.516;2022-10-16T13:35:59;5.68;;;0.70;;
72904;SDS011;61048;52.162;4.516;2022-10-16T13:38:28;5.07;;;0.63;;
72904;SDS011;61048;52.162;4.516;2022-10-16T13:40:56;4.72;;;1.17;;
72904;SDS011;61048;52.162;4.516;2022-10-16T13:43:26;6.15;;;0.70;;
72904;SDS011;61048;52.162;4.516;2022-10-16T13:45:58;5.13;;;0.52;;
72904;SDS011;61048;52.162;4.516;2022-10-16T13:48:28;5.85;;;0.80;;
72904;SDS011;61048;52.162;4.516;2022-10-16T13:51:00;5.90;;;0.60;;
72904;SDS011;61048;52.162;4.516;2022-10-16T13:53:29;3.20;;;0.57;;
72904;SDS011;61048;52.162;4.516;2022-10-16T13:55:57;3.85;;;0.60;;
72904;SDS011;61048;52.162;4.516;2022-10-16T13:58:25;4.75;;;0.50;;
72904;SDS011;61048;52.162;4.516;2022-10-16T14:00:53;4.47;;;0.70;;
72904;SDS011;61048;52.162;4.516;2022-10-16T14:03:21;5.45;;;0.95;;
72904;SDS011;61048;52.162;4.516;2022-10-16T14:05:49;7.10;;;0.60;;
72904;SDS011;61048;52.162;4.516;2022-10-16T14:08:19;5.95;;;1.00;;
72904;SDS011;61048;52.162;4.516;2022-10-16T14:10:47;4.43;;;0.70;;
72904;SDS011;61048;52.162;4.516;2022-10-16T14:13:17;3.53;;;0.55;;
72904;SDS011;61048;52.162;4.516;2022-10-16T14:15:46;9.30;;;0.70;;
72904;SDS011;61048;52.162;4.516;2022-10-16T14:18:16;7.25;;;1.20;;
72904;SDS011;61048;52.162;4.516;2022-10-16T14:20:45;7.07;;;0.80;;
72904;SDS011;61048;52.162;4.516;2022-10-16T14:23:21;3.38;;;0.40;;
72904;SDS011;61048;52.162;4.516;2022-10-16T14:25:51;6.50;;;0.60;;
72904;SDS011;61048;52.162;4.516;2022-10-16T14:28:19;6.15;;;0.70;;
72904;SDS011;61048;52.162;4.516;2022-10-16T14:30:51;3.38;;;0.65;;
72904;SDS011;61048;52.162;4.516;2022-10-16T14:33:20;5.45;;;0.85;;
72904;SDS011;61048;52.162;4.516;2022-10-16T14:35:59;4.00;;;0.65;;
72904;SDS011;61048;52.162;4.516;2022-10-16T14:38:28;7.40;;;0.60;;
72904;SDS011;61048;52.162;4.516;2022-10-16T14:40:55;7.40;;;0.85;;
72904;SDS011;61048;52.162;4.516;2022-10-16T14:43:26;20.30;;;1.40;;
72904;SDS011;61048;52.162;4.516;2022-10-16T14:45:58;29.90;;;2.60;;
72904;SDS011;61048;52.162;4.516;2022-10-16T14:48:25;22.60;;;3.08;;
72904;SDS011;61048;52.162;4.516;2022-10-16T14:50:52;29.98;;;3.30;;
72904;SDS011;61048;52.162;4.516;2022-10-16T14:53:19;22.67;;;2.40;;
72904;SDS011;61048;52.162;4.516;2022-10-16T14:55:48;22.10;;;1.98;;
72904;SDS011;61048;52.162;4.516;2022-10-16T14:58:15;20.10;;;1.80;;
72904;SDS011;61048;52.162;4.516;2022-10-16T15:00:45;17.60;;;2.13;;
72904;SDS011;61048;52.162;4.516;2022-10-16T15:03:12;25.17;;;2.67;;
72904;SDS011;61048;52.162;4.516;2022-10-16T15:05:39;16.08;;;1.65;;
72904;SDS011;61048;52.162;4.516;2022-10-16T15:08:06;17.48;;;1.50;;
72904;SDS011;61048;52.162;4.516;2022-10-16T15:10:35;15.52;;;1.95;;
72904;SDS011;61048;52.162;4.516;2022-10-16T15:13:06;24.65;;;1.92;;
72904;SDS011;61048;52.162;4.516;2022-10-16T15:15:35;20.48;;;1.70;;
72904;SDS011;61048;52.162;4.516;2022-10-16T15:18:03;15.60;;;1.63;;